createdAt,value
2018-10-11T00:00:13.235Z,22.40
2018-10-11T00:02:42.113Z,22.07
2018-10-11T00:05:10.978Z,23.52
2018-10-11T00:07:39.823Z,25.88
2018-10-11T00:10:08.683Z,21.65
2018-10-11T00:12:37.577Z,24.05
2018-10-11T00:15:06.791Z,23.60
2018-10-11T00:17:35.696Z,24.67
2018-10-11T00:20:04.700Z,25.80
2018-10-11T00:22:33.638Z,23.35
2018-10-11T00:25:02.542Z,25.27
2018-10-11T00:27:31.458Z,24.65
2018-10-11T00:30:00.383Z,25.27
2018-10-11T00:32:29.348Z,26.25
2018-10-11T00:34:58.232Z,25.57
2018-10-11T00:37:27.127Z,24.72
2018-10-11T00:39:56.029Z,26.33
2018-10-11T00:42:24.891Z,25.17
2018-10-11T00:44:53.763Z,26.68
2018-10-11T00:47:22.914Z,25.77
2018-10-11T00:49:51.801Z,26.05
2018-10-11T00:52:20.698Z,28.42
2018-10-11T00:54:49.575Z,27.62
2018-10-11T00:57:18.441Z,25.80
2018-10-11T00:59:47.309Z,25.10
2018-10-11T01:02:16.159Z,28.15
2018-10-11T01:04:45.062Z,28.02
2018-10-11T01:07:13.370Z,25.82
2018-10-11T01:09:42.357Z,25.85
2018-10-11T01:12:11.267Z,27.93
2018-10-11T01:14:40.397Z,26.62
2018-10-11T01:17:09.673Z,30.17
2018-10-11T01:19:38.564Z,27.67
2018-10-11T01:22:07.499Z,28.83
2018-10-11T01:24:36.754Z,29.20
2018-10-11T01:27:05.780Z,27.80
2018-10-11T01:29:34.721Z,26.48
2018-10-11T01:32:03.273Z,31.25
2018-10-11T01:34:32.169Z,26.48
2018-10-11T01:37:01.315Z,29.45
2018-10-11T01:39:30.559Z,27.17
2018-10-11T01:41:58.829Z,30.37
2018-10-11T01:44:27.231Z,28.27
2018-10-11T01:46:56.138Z,28.95
2018-10-11T01:49:24.830Z,29.35
2018-10-11T01:51:53.697Z,29.45
2018-10-11T01:54:22.347Z,29.50
2018-10-11T01:56:51.331Z,31.80
2018-10-11T01:59:19.782Z,29.37
2018-10-11T02:01:48.102Z,32.70
2018-10-11T02:04:16.427Z,28.97
2018-10-11T02:06:44.732Z,31.37
2018-10-11T02:09:13.099Z,32.77
2018-10-11T02:11:41.411Z,29.73
2018-10-11T02:14:09.873Z,30.77
2018-10-11T02:16:38.198Z,29.40
2018-10-11T02:19:06.658Z,31.97
2018-10-11T02:21:34.973Z,32.13
2018-10-11T02:24:03.307Z,32.47
2018-10-11T02:26:31.616Z,31.27
2018-10-11T02:28:59.932Z,31.80
2018-10-11T02:31:28.241Z,34.00
2018-10-11T02:33:57.115Z,31.25
2018-10-11T02:36:25.387Z,33.80
2018-10-11T02:38:53.749Z,32.50
2018-10-11T02:41:22.749Z,33.45
2018-10-11T02:43:51.621Z,35.13
2018-10-11T02:46:20.519Z,33.58
2018-10-11T02:48:49.592Z,32.65
2018-10-11T02:51:17.924Z,35.23
2018-10-11T02:53:46.227Z,35.00
2018-10-11T02:56:14.519Z,35.03
2018-10-11T02:58:54.220Z,32.83
2018-10-11T03:01:22.918Z,35.83
2018-10-11T03:03:54.510Z,37.23
2018-10-11T03:06:22.832Z,36.67
2018-10-11T03:08:51.150Z,33.97
2018-10-11T03:11:19.551Z,36.47
2018-10-11T03:13:47.849Z,38.10
2018-10-11T03:16:16.515Z,33.77
2018-10-11T03:18:45.211Z,34.63
2018-10-11T03:21:13.498Z,36.63
2018-10-11T03:23:42.013Z,36.27
2018-10-11T03:26:10.296Z,37.17
2018-10-11T03:28:38.626Z,36.47
2018-10-11T03:31:07.332Z,36.47
2018-10-11T03:33:35.884Z,36.57
2018-10-11T03:36:04.189Z,35.83
2018-10-11T03:38:32.495Z,35.97
2018-10-11T03:41:00.811Z,37.70
2018-10-11T03:43:29.095Z,36.30
2018-10-11T03:45:57.434Z,36.60
2018-10-11T03:48:25.744Z,36.90
2018-10-11T03:50:54.063Z,39.67
2018-10-11T03:53:22.367Z,37.80
2018-10-11T03:55:50.693Z,37.97
2018-10-11T03:58:19.076Z,38.70
2018-10-11T04:00:47.373Z,37.50
2018-10-11T04:03:15.672Z,39.50
2018-10-11T04:05:43.968Z,37.80
2018-10-11T04:08:12.265Z,36.40
2018-10-11T04:10:40.664Z,38.13
2018-10-11T04:13:08.950Z,36.17
2018-10-11T04:15:37.250Z,37.63
2018-10-11T04:18:05.808Z,38.60
2018-10-11T04:20:34.668Z,35.25
2018-10-11T04:23:02.974Z,33.40
2018-10-11T04:25:31.263Z,37.50
2018-10-11T04:27:59.571Z,39.57
2018-10-11T04:30:27.878Z,35.93
2018-10-11T04:32:56.643Z,37.07
2018-10-11T04:35:25.183Z,36.73
2018-10-11T04:37:53.488Z,32.97
2018-10-11T04:40:21.807Z,35.13
2018-10-11T04:42:50.143Z,38.70
2018-10-11T04:45:19.155Z,36.08
2018-10-11T04:47:47.485Z,34.63
2018-10-11T04:50:16.365Z,35.13
2018-10-11T04:52:45.357Z,36.88
2018-10-11T04:55:14.234Z,34.85
2018-10-11T04:57:43.135Z,34.75
2018-10-11T05:00:11.481Z,34.80
2018-10-11T05:02:40.085Z,37.57
2018-10-11T05:05:09.234Z,35.28
2018-10-11T05:07:38.299Z,36.23
2018-10-11T05:10:07.235Z,34.73
2018-10-11T05:12:36.224Z,34.63
2018-10-11T05:15:05.202Z,35.92
2018-10-11T05:17:33.595Z,35.33
2018-10-11T05:20:02.301Z,34.40
2018-10-11T05:22:30.646Z,37.38
2018-10-11T05:24:59.512Z,35.40
2018-10-11T05:27:28.410Z,35.50
2018-10-11T05:29:57.010Z,35.27
2018-10-11T05:32:26.581Z,34.88
2018-10-11T05:34:55.359Z,34.13
2018-10-11T05:37:23.665Z,37.63
2018-10-11T05:42:51.707Z,35.97
2018-10-11T05:45:22.223Z,37.63
2018-10-11T05:47:50.548Z,35.63
2018-10-11T05:50:18.923Z,37.07
2018-10-11T05:52:47.458Z,35.40
2018-10-11T05:55:16.352Z,36.53
2018-10-11T05:57:45.324Z,36.68
2018-10-11T06:00:14.217Z,33.35
2018-10-11T06:02:55.613Z,35.60
2018-10-11T06:05:23.870Z,37.97
2018-10-11T06:07:52.814Z,34.43
2018-10-11T06:10:21.703Z,35.28
2018-10-11T06:12:50.607Z,34.27
2018-10-11T06:15:20.006Z,34.83
2018-10-11T06:17:49.216Z,34.63
2018-10-11T06:20:18.268Z,33.20
2018-10-11T06:22:47.599Z,35.63
2018-10-11T06:25:16.114Z,33.50
2018-10-11T06:27:45.366Z,32.60
2018-10-11T06:30:14.649Z,32.57
2018-10-11T06:32:44.273Z,29.35
2018-10-11T06:35:13.337Z,30.12
2018-10-11T06:37:42.899Z,30.10
2018-10-11T06:46:56.596Z,26.42
2018-10-11T06:49:25.696Z,24.72
2018-10-11T06:51:54.583Z,24.98
2018-10-11T06:54:23.472Z,26.70
2018-10-11T06:56:52.360Z,22.65
2018-10-11T06:59:21.220Z,22.20
2018-10-11T07:01:49.850Z,23.77
2018-10-11T07:04:18.956Z,22.62
2018-10-11T07:06:47.844Z,21.17
2018-10-11T07:09:16.754Z,20.65
2018-10-11T07:11:45.639Z,18.30
2018-10-11T07:14:14.561Z,20.27
2018-10-11T07:16:44.152Z,20.77
2018-10-11T07:19:13.158Z,19.75
2018-10-11T07:21:43.538Z,17.87
2018-10-11T07:24:12.420Z,17.70
2018-10-11T07:26:41.340Z,16.32
2018-10-11T07:29:10.296Z,17.02
2018-10-11T07:31:39.184Z,16.62
2018-10-11T07:34:08.483Z,17.15
2018-10-11T07:36:37.453Z,17.00
2018-10-11T07:39:09.717Z,17.10
2018-10-11T07:41:38.601Z,16.75
2018-10-11T07:44:08.419Z,17.12
2018-10-11T07:46:37.691Z,17.10
2018-10-11T07:49:07.631Z,19.00
2018-10-11T07:51:36.740Z,15.63
2018-10-11T07:54:05.641Z,16.30
2018-10-11T07:56:34.585Z,15.85
2018-10-11T07:59:03.728Z,13.58
2018-10-11T08:01:32.347Z,13.87
2018-10-11T08:04:01.325Z,12.90
2018-10-11T08:06:30.214Z,13.58
2018-10-11T08:08:59.140Z,13.22
2018-10-11T08:11:28.292Z,13.78
2018-10-11T08:13:57.290Z,15.28
2018-10-11T08:16:26.172Z,11.35
2018-10-11T08:18:55.290Z,11.70
2018-10-11T08:21:24.353Z,11.50
2018-10-11T08:23:53.467Z,12.28
2018-10-11T08:26:22.795Z,13.15
2018-10-11T08:28:51.476Z,12.00
2018-10-11T08:31:20.340Z,14.83
2018-10-11T08:33:49.596Z,15.00
2018-10-11T08:36:18.499Z,13.10
2018-10-11T08:38:47.388Z,13.90
2018-10-11T08:41:17.475Z,15.13
2018-10-11T08:43:46.335Z,13.72
2018-10-11T08:46:15.236Z,12.85
2018-10-11T08:48:44.479Z,12.55
2018-10-11T08:51:13.377Z,13.95
2018-10-11T08:53:42.383Z,15.08
2018-10-11T08:56:11.316Z,13.40
2018-10-11T08:58:40.231Z,16.12
2018-10-11T09:01:08.878Z,13.60
2018-10-11T09:03:37.873Z,12.98
2018-10-11T09:06:07.201Z,13.58
2018-10-11T09:08:36.246Z,13.13
2018-10-11T09:11:05.265Z,16.10
2018-10-11T09:13:34.242Z,13.78
2018-10-11T09:16:03.089Z,11.85
2018-10-11T09:18:31.985Z,14.83
2018-10-11T09:21:04.744Z,14.05
2018-10-11T09:23:33.633Z,18.82
2018-10-11T09:26:02.888Z,15.03
2018-10-11T09:28:31.744Z,11.95
2018-10-11T09:31:00.651Z,12.93
2018-10-11T09:33:29.601Z,13.05
2018-10-11T09:35:58.456Z,11.50
2018-10-11T09:38:27.270Z,10.40
2018-10-11T09:40:56.158Z,12.73
2018-10-11T09:43:28.810Z,13.10
2018-10-11T09:45:57.688Z,12.00
2018-10-11T09:48:26.567Z,11.57
2018-10-11T09:50:55.454Z,14.07
2018-10-11T09:53:24.307Z,13.70
2018-10-11T09:55:53.178Z,13.10
2018-10-11T09:58:22.095Z,10.38
2018-10-11T10:00:56.054Z,10.13
2018-10-11T10:03:24.928Z,10.35
2018-10-11T10:05:53.847Z,10.00
2018-10-11T10:08:22.733Z,10.20
2018-10-11T10:10:51.627Z,11.70
2018-10-11T10:13:20.482Z,11.40
2018-10-11T10:15:49.371Z,12.40
2018-10-11T10:18:18.244Z,12.68
2018-10-11T10:20:47.199Z,13.22
2018-10-11T10:23:16.082Z,12.13
2018-10-11T10:25:44.963Z,12.20
2018-10-11T10:28:13.812Z,12.58
2018-10-11T10:30:48.027Z,13.32
2018-10-11T10:33:16.896Z,11.73
2018-10-11T10:35:45.769Z,14.28
2018-10-11T10:38:14.659Z,10.90
2018-10-11T10:40:43.529Z,12.63
2018-10-11T10:43:12.691Z,11.55
2018-10-11T10:45:42.084Z,11.20
2018-10-11T10:48:10.931Z,12.40
2018-10-11T10:50:39.807Z,10.65
2018-10-11T10:53:08.683Z,10.23
2018-10-11T10:55:37.541Z,10.00
2018-10-11T10:58:06.438Z,9.68
2018-10-11T11:00:41.144Z,9.45
2018-10-11T11:03:09.890Z,10.43
2018-10-11T11:05:38.816Z,9.90
2018-10-11T11:08:07.745Z,8.85
2018-10-11T11:10:36.652Z,11.25
2018-10-11T11:13:05.512Z,7.95
2018-10-11T11:15:34.643Z,7.97
2018-10-11T11:18:03.545Z,9.23
2018-10-11T11:20:32.402Z,7.15
2018-10-11T11:23:01.494Z,7.35
2018-10-11T11:25:30.435Z,8.33
2018-10-11T11:27:59.271Z,8.93
2018-10-11T11:30:28.161Z,11.97
2018-10-11T11:32:56.997Z,7.62
2018-10-11T11:35:25.972Z,9.75
2018-10-11T11:37:54.863Z,10.43
2018-10-11T11:40:23.746Z,9.43
2018-10-11T11:42:52.625Z,9.95
2018-10-11T11:45:21.875Z,10.45
2018-10-11T11:47:50.763Z,10.08
2018-10-11T11:50:19.762Z,9.45
2018-10-11T11:52:48.751Z,8.90
2018-10-11T11:55:17.624Z,8.68
2018-10-11T11:57:46.498Z,7.67
2018-10-11T12:00:15.483Z,9.15
2018-10-11T12:02:44.131Z,7.80
2018-10-11T12:05:13.205Z,7.83
2018-10-11T12:07:42.221Z,7.97
2018-10-11T12:10:11.081Z,9.08
2018-10-11T12:13:04.245Z,8.65
2018-10-11T12:15:33.715Z,7.87
2018-10-11T12:18:03.522Z,7.70
2018-10-11T12:20:34.521Z,7.87
2018-10-11T12:23:04.552Z,9.10
2018-10-11T12:25:34.045Z,10.00
2018-10-11T12:28:02.921Z,9.43
2018-10-11T12:30:32.155Z,7.92
2018-10-11T12:33:01.688Z,7.35
2018-10-11T12:35:31.266Z,7.90
2018-10-11T12:38:00.133Z,7.80
2018-10-11T12:40:29.007Z,6.95
2018-10-11T12:42:57.876Z,8.08
2018-10-11T12:45:26.809Z,7.03
2018-10-11T12:47:55.810Z,7.72
2018-10-11T12:50:24.982Z,6.75
2018-10-11T12:52:53.944Z,6.00
2018-10-11T12:55:22.818Z,7.10
2018-10-11T12:57:51.673Z,7.87
2018-10-11T13:00:23.978Z,6.12
2018-10-11T13:02:52.564Z,7.07
2018-10-11T13:05:21.562Z,6.45
2018-10-11T13:07:50.433Z,5.90
2018-10-11T13:10:19.321Z,5.72
2018-10-11T13:12:48.167Z,5.90
2018-10-11T13:15:17.210Z,6.67
2018-10-11T13:17:46.310Z,6.95
2018-10-11T13:20:15.182Z,6.25
2018-10-11T13:22:44.066Z,6.62
2018-10-11T13:25:13.068Z,4.75
2018-10-11T13:27:42.291Z,4.70
2018-10-11T13:30:11.477Z,6.97
2018-10-11T13:32:40.379Z,11.03
2018-10-11T13:35:09.273Z,7.33
2018-10-11T13:37:38.289Z,8.08
2018-10-11T13:40:07.903Z,6.58
2018-10-11T13:42:36.777Z,6.90
2018-10-11T13:45:06.060Z,5.65
2018-10-11T13:47:39.798Z,8.38
2018-10-11T13:50:04.000Z,6.35
2018-10-11T13:52:32.895Z,5.40
2018-10-11T13:55:08.122Z,5.95
2018-10-11T13:57:31.591Z,7.35
2018-10-11T14:00:00.505Z,7.00
2018-10-11T14:02:29.149Z,8.50
2018-10-11T14:04:58.019Z,7.33
2018-10-11T14:07:26.901Z,5.90
2018-10-11T14:09:55.772Z,6.80
2018-10-11T14:12:24.702Z,7.55
2018-10-11T14:14:53.624Z,5.95
2018-10-11T14:17:22.576Z,8.43
2018-10-11T14:19:52.630Z,8.18
2018-10-11T14:22:21.699Z,6.12
2018-10-11T14:24:50.582Z,5.85
2018-10-11T14:27:19.469Z,5.83
2018-10-11T14:29:48.389Z,5.47
2018-10-11T14:32:17.310Z,6.00
2018-10-11T14:34:46.170Z,9.95
2018-10-11T14:37:15.239Z,10.05
2018-10-11T14:39:44.192Z,7.30
2018-10-11T14:42:14.284Z,8.58
2018-10-11T14:47:06.301Z,6.78
2018-10-11T14:49:35.196Z,8.53
2018-10-11T14:52:04.074Z,6.87
2018-10-11T14:54:34.707Z,6.80
2018-10-11T14:57:05.116Z,7.08
2018-10-11T14:59:34.303Z,4.53
2018-10-11T15:02:03.159Z,7.17
2018-10-11T15:04:32.615Z,6.65
2018-10-11T15:07:01.520Z,5.05
2018-10-11T15:09:30.764Z,4.35
2018-10-11T15:11:59.636Z,6.78
2018-10-11T15:14:28.669Z,6.53
2018-10-11T15:16:57.777Z,5.62
2018-10-11T15:19:26.699Z,6.25
2018-10-11T15:36:24.874Z,4.78
2018-10-11T15:38:53.510Z,5.43
2018-10-11T15:41:22.148Z,4.73
2018-10-11T15:43:50.713Z,4.73
2018-10-11T15:46:19.323Z,3.93
2018-10-11T15:48:48.057Z,3.93
2018-10-11T15:51:16.700Z,5.60
2018-10-11T15:53:45.306Z,5.00
2018-10-11T15:56:13.901Z,4.27
2018-10-11T16:01:39.208Z,5.73
2018-10-11T16:04:08.335Z,3.77
2018-10-11T16:06:37.232Z,4.50
2018-10-11T16:09:07.845Z,5.62
2018-10-11T16:11:36.847Z,4.25
2018-10-11T16:14:05.673Z,5.95
2018-10-11T16:16:34.542Z,6.00
2018-10-11T16:19:03.455Z,5.33
2018-10-11T16:21:32.305Z,5.72
2018-10-11T16:27:00.339Z,4.50
2018-10-11T16:29:29.261Z,5.50
2018-10-11T16:31:58.120Z,4.58
2018-10-11T16:34:27.026Z,5.83
2018-10-11T16:36:55.909Z,5.35
2018-10-11T16:39:24.771Z,6.42
2018-10-11T16:41:54.078Z,5.45
2018-10-11T16:44:22.959Z,4.72
2018-10-11T16:46:51.836Z,5.58
2018-10-11T16:55:07.326Z,6.50
2018-10-11T16:57:36.189Z,6.33
2018-10-11T17:00:05.346Z,7.30
2018-10-11T17:02:33.935Z,6.30
2018-10-11T17:05:02.829Z,7.10
2018-10-11T17:07:31.834Z,6.85
2018-10-11T17:10:00.760Z,7.22
2018-10-11T17:12:29.944Z,7.25
2018-10-11T17:14:58.928Z,6.50
2018-10-11T17:17:27.849Z,6.87
2018-10-11T17:19:56.804Z,6.78
2018-10-11T17:22:25.832Z,8.23
2018-10-11T17:24:54.700Z,8.55
2018-10-11T17:27:23.927Z,9.73
2018-10-11T17:29:53.013Z,10.60
2018-10-11T17:32:22.006Z,8.58
2018-10-11T17:34:51.332Z,6.83
2018-10-11T17:37:20.333Z,9.18
2018-10-11T17:39:49.311Z,7.85
2018-10-11T17:42:18.363Z,9.30
2018-10-11T17:44:47.417Z,10.13
2018-10-11T17:47:16.377Z,8.38
2018-10-11T17:49:45.281Z,9.05
2018-10-11T17:52:14.408Z,7.87
2018-10-11T17:54:48.835Z,10.98
2018-10-11T17:57:18.334Z,8.13
2018-10-11T17:59:47.655Z,10.38
2018-10-11T18:02:16.600Z,9.67
2018-10-11T18:04:45.508Z,9.30
2018-10-11T18:07:14.763Z,11.30
2018-10-11T18:09:43.626Z,8.68
2018-10-11T18:12:12.545Z,8.05
2018-10-11T18:14:41.760Z,9.70
2018-10-11T18:17:10.749Z,10.15
2018-10-11T18:19:39.658Z,9.60
2018-10-11T18:22:08.583Z,9.65
2018-10-11T18:24:37.507Z,10.58
2018-10-11T18:27:06.393Z,8.60
2018-10-11T18:29:35.320Z,11.35
2018-10-11T18:32:04.216Z,13.53
2018-10-11T18:34:33.082Z,11.95
2018-10-11T18:37:02.032Z,9.58
2018-10-11T18:39:31.465Z,10.75
2018-10-11T18:42:00.732Z,8.35
2018-10-11T18:44:29.658Z,9.35
2018-10-11T18:46:58.725Z,11.75
2018-10-11T18:49:27.593Z,8.95
2018-10-11T18:51:56.548Z,9.25
2018-10-11T18:54:25.502Z,10.40
2018-10-11T18:56:54.427Z,10.38
2018-10-11T18:59:23.335Z,9.03
2018-10-11T19:01:51.923Z,10.40
2018-10-11T19:04:20.908Z,10.20
2018-10-11T19:06:49.829Z,8.00
2018-10-11T19:09:18.782Z,11.50
2018-10-11T19:11:47.733Z,12.70
2018-10-11T19:14:16.794Z,12.93
2018-10-11T19:16:45.751Z,10.68
2018-10-11T19:19:14.760Z,10.15
2018-10-11T19:21:43.696Z,10.20
2018-10-11T19:24:12.653Z,10.60
2018-10-11T19:26:41.580Z,12.58
2018-10-11T19:29:10.536Z,11.53
2018-10-11T19:31:39.648Z,10.78
2018-10-11T19:34:08.572Z,9.75
2018-10-11T19:36:37.513Z,9.30
2018-10-11T19:39:09.039Z,9.33
2018-10-11T19:41:38.188Z,10.55
2018-10-11T19:44:07.100Z,10.78
2018-10-11T19:46:36.012Z,8.88
2018-10-11T19:49:05.514Z,10.50
2018-10-11T19:51:34.605Z,11.80
2018-10-11T19:54:03.501Z,10.10
2018-10-11T19:56:32.394Z,9.45
2018-10-11T19:59:01.320Z,10.60
2018-10-11T20:01:30.297Z,8.37
2018-10-11T20:03:59.311Z,9.48
2018-10-11T20:06:28.234Z,12.37
2018-10-11T20:08:57.134Z,10.18
2018-10-11T20:11:26.016Z,8.15
2018-10-11T20:13:55.063Z,10.18
2018-10-11T20:16:23.991Z,8.70
2018-10-11T20:18:52.943Z,10.68
2018-10-11T20:21:21.856Z,15.40
2018-10-11T20:23:50.816Z,11.05
2018-10-11T20:26:19.934Z,10.03
2018-10-11T20:28:48.865Z,10.63
2018-10-11T20:31:17.744Z,13.00
2018-10-11T20:33:46.716Z,11.65
2018-10-11T20:36:15.680Z,10.70
2018-10-11T20:38:44.614Z,10.40
2018-10-11T20:41:13.531Z,10.95
2018-10-11T20:43:42.440Z,11.65
2018-10-11T20:46:11.552Z,9.20
2018-10-11T20:48:40.723Z,10.00
2018-10-11T20:51:09.733Z,10.25
2018-10-11T20:53:38.801Z,9.15
2018-10-11T20:56:08.070Z,9.10
2018-10-11T20:58:36.922Z,9.38
2018-10-11T21:01:05.972Z,9.63
2018-10-11T21:03:34.860Z,9.98
2018-10-11T21:06:04.116Z,9.28
2018-10-11T21:08:33.008Z,8.58
2018-10-11T21:11:02.160Z,8.23
2018-10-11T21:13:31.054Z,9.13
2018-10-11T21:15:59.933Z,8.95
2018-10-11T21:18:28.838Z,8.43
2018-10-11T21:20:57.733Z,10.53
2018-10-11T21:23:26.694Z,7.97
2018-10-11T21:25:55.528Z,9.28
2018-10-11T21:28:24.438Z,7.72
2018-10-11T21:30:53.357Z,8.80
2018-10-11T21:33:22.250Z,9.05
2018-10-11T21:35:51.182Z,9.30
2018-10-11T21:38:20.072Z,11.12
2018-10-11T21:40:48.954Z,9.20
2018-10-11T21:43:17.887Z,10.58
2018-10-11T21:45:46.754Z,10.32
2018-10-11T21:48:15.628Z,9.23
2018-10-11T21:50:44.482Z,8.93
2018-10-11T21:53:13.394Z,10.80
2018-10-11T21:55:42.269Z,10.05
2018-10-11T21:58:11.277Z,10.40
2018-10-11T22:00:45.379Z,10.30
2018-10-11T22:03:14.260Z,9.48
2018-10-11T22:05:43.145Z,9.55
2018-10-11T22:08:11.994Z,9.85
2018-10-11T22:10:40.857Z,10.13
2018-10-11T22:13:09.741Z,10.55
2018-10-11T22:15:38.659Z,10.30
2018-10-11T22:18:07.571Z,9.95
2018-10-11T22:20:36.397Z,9.08
2018-10-11T22:23:05.284Z,10.72
2018-10-11T22:25:34.170Z,11.12
2018-10-11T22:28:03.026Z,10.15
2018-10-11T22:30:31.897Z,10.60
2018-10-11T22:33:00.880Z,8.95
2018-10-11T22:35:29.754Z,9.98
2018-10-11T22:38:00.177Z,8.65
2018-10-11T22:40:29.657Z,8.73
2018-10-11T22:42:58.587Z,8.65
2018-10-11T22:45:27.756Z,8.28
2018-10-11T22:47:57.103Z,9.13
2018-10-11T22:50:27.194Z,9.93
2018-10-11T22:52:56.426Z,10.45
2018-10-11T22:55:25.947Z,8.43
2018-10-11T22:57:55.536Z,8.30
2018-10-11T23:00:24.622Z,13.05
2018-10-11T23:02:53.800Z,9.35
2018-10-11T23:05:23.048Z,11.73
2018-10-11T23:07:51.987Z,9.35
2018-10-11T23:10:21.111Z,9.15
2018-10-11T23:12:50.365Z,10.58
2018-10-11T23:15:19.230Z,8.70
2018-10-11T23:17:48.075Z,8.93
2018-10-11T23:20:16.920Z,8.25
2018-10-11T23:22:45.768Z,7.28
2018-10-11T23:25:14.642Z,8.43
2018-10-11T23:27:43.563Z,7.67
2018-10-11T23:30:12.751Z,7.78
2018-10-11T23:32:42.411Z,9.93
2018-10-11T23:35:11.938Z,7.50
2018-10-11T23:37:41.112Z,8.80
2018-10-11T23:40:11.140Z,8.48
2018-10-11T23:42:40.754Z,8.55
2018-10-11T23:45:11.296Z,7.28
2018-10-11T23:47:40.465Z,6.15
2018-10-11T23:50:09.358Z,5.20
2018-10-11T23:52:38.363Z,4.90
2018-10-11T23:55:07.603Z,5.20
2018-10-11T23:57:36.479Z,6.28
